• Join FlightAware (Why Join?)
  • Login
  • US Flag 
06:26PM EDT


 

Airport Tracker/Info


-or-


 

Live Flight TrackerFlight Track Log ✈ UAL33 ✈ 18-Sep-2013 ✈ RJAA / NRT - KLAX

Flight Track Log - Related Links

Times and Time Zones

All times are in EDT time to prevent confusion due to time zone crossing. See the UAL33 flight status page for this flight to view local times or setup timezone preferences in your user account.

Time Position Orientation Groundspeed Altitude Reporting Facility
EDT Latitude Longitude Course Direction KTS MPH feet Rate Location/Type
07:04AM 35.7760 140.3670 330° Northwest 176 203 1,200  Level FlightAware
07:05AM 35.7890 140.3580 331° Northwest 179 206 2,000 2,700 Climbing FlightAware
07:05AM 35.8050 140.3460 329° Northwest 181 208 3,000 2,520 Climbing FlightAware
07:05AM 35.8180 140.3370 331° Northwest 187 215 3,700 1,800 Climbing FlightAware
07:06AM 35.8350 140.3240 328° Northwest 212 244 4,200 1,800 Climbing FlightAware
07:06AM 35.8620 140.3050 330° Northwest 239 275 5,200 1,860 Climbing FlightAware
07:07AM 35.8760 140.2960 332° Northwest 258 297 5,600 2,400 Climbing FlightAware
07:07AM 35.8850 140.2940 350° North 258 297 6,000 3,600 Climbing FlightAware
07:07AM 35.8910 140.2930 352° North 259 298 6,200 2,880 Climbing FlightAware
07:07AM 35.9130 140.3000 14° North 266 306 7,200 3,120 Climbing FlightAware
07:07AM 35.9190 140.3060 39° Northeast 266 306 7,500 3,000 Climbing FlightAware
07:07AM 35.9230 140.3120 51° Northeast 271 312 7,700 2,760 Climbing FlightAware
07:07AM 35.9290 140.3250 60° Northeast 278 320 8,200 2,400 Climbing FlightAware
07:07AM 35.9310 140.3330 73° East 283 326 8,300 1,560 Climbing FlightAware
07:08AM 35.9320 140.3440 84° East 288 331 8,600 2,760 Climbing FlightAware
07:08AM 35.9230 140.3820 106° East 297 342 9,700 2,760 Climbing FlightAware
07:08AM 35.9060 140.4190 120° Southeast 315 362 10,700 1,740 Climbing FlightAware
07:09AM 35.8680 140.4820 127° Southeast 364 419 11,600 1,080 Climbing FlightAware
07:10AM 35.8360 140.5340 127° Southeast 398 458 12,000 1,200 Climbing FlightAware
07:10AM 35.7970 140.5990 126° Southeast 421 484 12,900 1,800 Climbing FlightAware
07:11AM 35.7660 140.6500 127° Southeast 434 499 13,800 1,680 Climbing FlightAware
07:11AM 35.7150 140.7450 123° Southeast 440 506 15,000 1,080 Climbing FlightAware
07:12AM 35.7030 140.8000 105° East 437 503 15,100 1,500 Climbing FlightAware
07:12AM 35.7050 140.8890 88° East 437 503 16,400 1,980 Climbing FlightAware
07:13AM 35.7120 140.9770 84° East 450 518 17,400 1,860 Climbing FlightAware
07:13AM 35.7210 141.0650 83° East 455 524 18,600 1,920 Climbing FlightAware
07:14AM 35.7430 141.1390 70° East 458 527 19,500 1,740 Climbing FlightAware
07:15AM 35.7730 141.2250 67° East 468 539 20,500 1,620 Climbing FlightAware
07:15AM 35.8030 141.3120 67° East 479 551 21,400 1,560 Climbing FlightAware
07:16AM 35.8290 141.3880 67° East 489 563 22,200 1,440 Climbing FlightAware
07:16AM 35.8600 141.4770 67° East 500 575 23,000 1,320 Climbing FlightAware
07:17AM 35.9010 141.5980 67° East 516 594 24,000 1,260 Climbing FlightAware
07:18AM 35.9300 141.6840 67° East 523 602 24,700 1,440 Climbing FlightAware
07:18AM 35.9670 141.7910 67° East 529 609 25,700 1,500 Climbing FlightAware
07:19AM 36.0020 141.8950 67° East 538 619 26,500 1,140 Climbing FlightAware
07:19AM 36.0310 141.9800 67° East 545 627 27,000 960 Climbing FlightAware
07:20AM 36.0660 142.0870 68° East 558 642 27,600 960 Climbing FlightAware
07:20AM 36.1060 142.2050 67° East 563 648 28,300 1,200 Climbing FlightAware
07:21AM 36.1370 142.2980 68° East 564 649 29,000 1,560 Climbing FlightAware
07:22AM 36.1710 142.4000 68° East 562 647 30,000 1,500 Climbing FlightAware
07:22AM 36.2050 142.5040 68° East 564 649 30,800 1,440 Climbing FlightAware
07:23AM 36.2400 142.6080 67° East 563 648 31,700 1,440 Climbing FlightAware
07:23AM 36.2740 142.7120 68° East 564 649 32,500 1,200 Climbing FlightAware
07:24AM 36.3090 142.8180 68° East 566 651 33,100 900 Climbing FlightAware
07:24AM 36.3420 142.9200 68° East 572 658 33,600 900 Climbing FlightAware
07:25AM 36.3780 143.0300 68° East 576 663 34,200 840 Climbing FlightAware
07:26AM 36.4160 143.1480 68° East 579 666 34,700 840 Climbing FlightAware
07:26AM 36.4480 143.2450 68° East 581 669 35,200 960 Climbing FlightAware
07:27AM 36.4830 143.3550 68° East 581 669 35,800 1,020 Climbing FlightAware
07:27AM 36.5230 143.4800 68° East 582 670 36,500 960 Climbing FlightAware
07:28AM 36.5470 143.5540 68° East 581 669 36,900 480 Climbing FlightAware
07:29AM 36.5930 143.6960 68° East 581 669 37,200 360 Climbing FlightAware
07:30AM 36.6770 143.9650 69° East 38,000 420 Climbing FlightAware
07:31AM 36.7090 144.0640 68° East 574 661 38,000  Level FlightAware
07:31AM 36.7380 144.1560 69° East 574 661 38,000  Level FlightAware
07:32AM 36.7770 144.2820 69° East 575 662 38,000  Level FlightAware
07:32AM 36.8080 144.3810 69° East 576 663 38,000  Level FlightAware
07:33AM 36.8520 144.5270 69° East 576 663 38,000  Level FlightAware
07:34AM 36.8900 144.6480 69° East 577 664 38,000  Level FlightAware
07:35AM 36.9190 144.7440 69° East 577 664 38,000  Level FlightAware
07:35AM 36.9620 144.8840 69° East 574 661 38,000  Level FlightAware
07:36AM 36.9980 145.0040 69° East 574 661 38,000  Level FlightAware
07:36AM 37.0260 145.1000 70° East 574 661 38,000  Level FlightAware
07:37AM 37.0530 145.1950 70° East 574 661 38,000  Level FlightAware
07:38AM 37.0810 145.2910 70° East 574 661 38,000  Level FlightAware
07:38AM 37.1090 145.3870 70° East 574 661 38,000  Level FlightAware
07:39AM 37.1370 145.4820 70° East 574 661 38,000  Level FlightAware
07:39AM 37.1640 145.5780 71° East 574 661 38,000  Level FlightAware
07:40AM 37.1920 145.6740 70° East 574 661 38,000  Level FlightAware
07:41AM 37.2210 145.7730 70° East 574 661 38,000  Level FlightAware
07:41AM 37.2490 145.8690 70° East 574 661 38,000  Level FlightAware
07:42AM 37.2760 145.9640 70° East 574 661 38,000  Level FlightAware
07:42AM 37.3050 146.0630 70° East 574 661 38,000  Level FlightAware
07:43AM 37.3330 146.1590 70° East 574 661 38,000  Level FlightAware
07:44AM 37.3600 146.2550 70° East 574 661 38,000  Level FlightAware
07:44AM 37.3880 146.3510 70° East 574 661 38,000  Level FlightAware
07:45AM 37.4160 146.4470 70° East 574 661 38,000  Level FlightAware
07:47AM 37.5460 146.7248 59° Northeast  Level Estimated
07:48AM 37.6221 146.8887 60° Northeast  Level Estimated
07:49AM 37.6980 147.0529 60° Northeast  Level Estimated
07:50AM 37.7737 147.2175 60° Northeast  Level Estimated
07:51AM 37.8492 147.3824 60° Northeast  Level Estimated
07:52AM 37.9244 147.5476 60° Northeast  Level Estimated
07:53AM 37.9994 147.7132 60° Northeast  Level Estimated
07:54AM 38.0742 147.8791 60° Northeast  Level Estimated
07:55AM 38.1487 148.0453 60° Northeast  Level Estimated
07:56AM 38.2230 148.2119 60° Northeast  Level Estimated
07:57AM 38.2970 148.3788 60° Northeast  Level Estimated
07:58AM 38.3708 148.5461 61° Northeast  Level Estimated
07:59AM 38.4444 148.7137 61° Northeast  Level Estimated
08:00AM 38.5178 148.8817 61° Northeast  Level Estimated
08:01AM 38.5909 149.0499 61° Northeast  Level Estimated
08:02AM 38.6637 149.2186 61° Northeast  Level Estimated
08:03AM 38.7364 149.3875 61° Northeast  Level Estimated
08:04AM 38.8087 149.5569 61° Northeast  Level Estimated
08:05AM 38.8809 149.7265 61° Northeast  Level Estimated
08:06AM 38.9528 149.8965 61° Northeast  Level Estimated
08:07AM 39.0244 150.0669 62° Northeast  Level Estimated
08:08AM 39.0958 150.2376 62° Northeast  Level Estimated
08:09AM 39.1669 150.4086 62° Northeast  Level Estimated
08:10AM 39.2378 150.5800 62° Northeast  Level Estimated
08:11AM 39.3084 150.7517 62° Northeast  Level Estimated
08:12AM 39.3788 150.9238 62° Northeast  Level Estimated
08:13AM 39.4490 151.0963 62° Northeast  Level Estimated
08:14AM 39.5188 151.2690 62° Northeast  Level Estimated
08:15AM 39.5885 151.4421 62° Northeast  Level Estimated
08:16AM 39.6578 151.6156 63° Northeast  Level Estimated
08:17AM 39.7269 151.7894 63° Northeast  Level Estimated
08:18AM 39.7958 151.9636 63° Northeast  Level Estimated
08:19AM 39.8643 152.1381 63° Northeast  Level Estimated
08:20AM 39.9327 152.3130 63° Northeast  Level Estimated
08:21AM 40.0007 152.4882 63° Northeast  Level Estimated
08:22AM 40.0685 152.6637 63° Northeast  Level Estimated
08:23AM 40.1361 152.8396 63° Northeast  Level Estimated
08:24AM 40.2033 153.0159 63° Northeast  Level Estimated
08:25AM 40.2703 153.1925 64° Northeast  Level Estimated
08:26AM 40.3370 153.3695 64° Northeast  Level Estimated
08:27AM 40.4035 153.5468 64° Northeast  Level Estimated
08:28AM 40.4697 153.7244 64° Northeast  Level Estimated
08:29AM 40.5356 153.9025 64° Northeast  Level Estimated
08:30AM 40.6012 154.0808 64° Northeast  Level Estimated
08:31AM 40.6666 154.2595 64° Northeast  Level Estimated
08:32AM 40.7317 154.4386 64° Northeast  Level Estimated
08:33AM 40.7965 154.6180 64° Northeast  Level Estimated
08:34AM 40.8610 154.7977 65° Northeast  Level Estimated
08:35AM 40.9252 154.9778 65° Northeast  Level Estimated
08:36AM 40.9892 155.1583 65° Northeast  Level Estimated
08:37AM 41.0529 155.3391 65° Northeast  Level Estimated
08:38AM 41.1163 155.5202 65° Northeast  Level Estimated
08:39AM 41.1794 155.7017 65° Northeast  Level Estimated
08:40AM 41.2423 155.8836 65° Northeast  Level Estimated
08:41AM 41.3048 156.0658 65° Northeast  Level Estimated
08:42AM 41.3671 156.2483 66° East  Level Estimated
08:43AM 41.4291 156.4312 66° East  Level Estimated
08:44AM 41.4907 156.6145 66° East  Level Estimated
08:45AM 41.5521 156.7981 66° East  Level Estimated
08:46AM 41.6132 156.9820 66° East  Level Estimated
08:47AM 41.6740 157.1663 66° East  Level Estimated
08:48AM 41.7345 157.3510 66° East  Level Estimated
08:49AM 41.7947 157.5359 66° East  Level Estimated
08:50AM 41.8547 157.7213 66° East  Level Estimated
08:51AM 41.9143 157.9070 67° East  Level Estimated
08:52AM 41.9736 158.0930 67° East  Level Estimated
08:53AM 42.0326 158.2794 67° East  Level Estimated
08:54AM 42.0913 158.4661 67° East  Level Estimated
08:55AM 42.1497 158.6531 67° East  Level Estimated
08:56AM 42.2079 158.8405 67° East  Level Estimated
08:57AM 42.2657 159.0283 67° East  Level Estimated
08:58AM 42.3231 159.2164 67° East  Level Estimated
08:59AM 42.3803 159.4048 68° East  Level Estimated
09:00AM 42.4372 159.5936 68° East  Level Estimated
09:01AM 42.4938 159.7827 68° East  Level Estimated
09:02AM 42.5500 159.9722 68° East  Level Estimated
09:03AM 42.6060 160.1620 68° East  Level Estimated
09:04AM 42.6616 160.3522 68° East  Level Estimated
09:05AM 42.7169 160.5427 68° East  Level Estimated
09:06AM 42.7719 160.7335 69° East  Level Estimated
09:07AM 42.8266 160.9247 69° East  Level Estimated
09:08AM 42.8810 161.1162 69° East  Level Estimated
09:09AM 42.9350 161.3080 69° East  Level Estimated
09:10AM 42.9887 161.5002 69° East  Level Estimated
09:11AM 43.0421 161.6927 69° East  Level Estimated
09:12AM 43.0952 161.8855 69° East  Level Estimated
09:13AM 43.1479 162.0787 69° East  Level Estimated
09:14AM 43.2004 162.2722 70° East  Level Estimated
09:15AM 43.2525 162.4660 70° East  Level Estimated
09:15AM 47.5500 161.3333 55° Northeast 592 681 38,000  Level Anchorage Center
09:16AM 43.3042 162.6602 70° East  Level Estimated
09:17AM 43.3557 162.8547 70° East  Level Estimated
09:18AM 43.4068 163.0495 70° East  Level Estimated
09:19AM 43.4576 163.2447 70° East  Level Estimated
09:19AM 48.0000 162.3000 55° Northeast 590 679 38,000  Level Anchorage Center
09:20AM 43.5080 163.4402 70° East  Level Estimated
09:21AM 48.0874 162.4745 55° Northeast 592 681 38,000  Level FlightAware Transoceanic
09:22AM 48.1759 162.6671 56° Northeast 592 681 38,000  Level FlightAware Transoceanic
09:23AM 48.2641 162.8602 56° Northeast 592 681 38,000  Level FlightAware Transoceanic
09:24AM 48.3519 163.0541 56° Northeast 592 681 38,000  Level FlightAware Transoceanic
09:25AM 48.4394 163.2486 56° Northeast 592 681 38,000  Level FlightAware Transoceanic
09:26AM 48.5275 163.4588 56° Northeast 590 679 38,000  Level FlightAware Transoceanic
09:27AM 48.6143 163.6543 56° Northeast 590 679 38,000  Level FlightAware Transoceanic
09:28AM 48.7008 163.8504 56° Northeast 590 679 38,000  Level FlightAware Transoceanic
09:29AM 48.7869 164.0473 57° Northeast 590 679 38,000  Level FlightAware Transoceanic
09:29AM 48.8833 164.2500 57° Northeast 590 679 38,000  Level Anchorage Center
09:30AM 48.8727 164.2448 57° Northeast 590 679 38,000  Level FlightAware Transoceanic
09:31AM 48.9581 164.4429 57° Northeast 590 679 38,000  Level FlightAware Transoceanic
09:32AM 49.0432 164.6418 57° Northeast 590 679 38,000  Level FlightAware Transoceanic
09:33AM 49.1279 164.8413 57° Northeast 590 679 38,000  Level FlightAware Transoceanic
09:34AM 49.2124 165.0415 57° Northeast 590 679 38,000  Level FlightAware Transoceanic
09:35AM 49.3741 165.4129 58° Northeast 590 679 38,000  Level FlightAware Transoceanic
09:36AM 49.4548 165.6090 58° Northeast 590 679 38,000  Level FlightAware Transoceanic
09:37AM 49.5351 165.8057 58° Northeast 590 679 38,000  Level FlightAware Transoceanic
09:38AM 49.6151 166.0031 58° Northeast 590 679 38,000  Level FlightAware Transoceanic
09:39AM 49.6948 166.2011 58° Northeast 590 679 38,000  Level FlightAware Transoceanic
09:40AM 49.7741 166.3997 58° Northeast 590 679 38,000  Level FlightAware Transoceanic
09:41AM 49.8531 166.5990 59° Northeast 590 679 38,000  Level FlightAware Transoceanic
09:42AM 49.9317 166.7990 59° Northeast 590 679 38,000  Level FlightAware Transoceanic
09:43AM 50.0100 166.9996 59° Northeast 590 679 38,000  Level FlightAware Transoceanic
09:44AM 50.0879 167.2009 59° Northeast 590 679 38,000  Level FlightAware Transoceanic
09:45AM 50.1655 167.4028 59° Northeast 590 679 38,000  Level FlightAware Transoceanic
09:46AM 50.2427 167.6053 59° Northeast 590 679 38,000  Level FlightAware Transoceanic
09:47AM 50.3196 167.8086 59° Northeast 590 679 38,000  Level FlightAware Transoceanic
09:48AM 50.3961 168.0125 60° Northeast 590 679 38,000  Level FlightAware Transoceanic
09:49AM 50.4723 168.2170 60° Northeast 590 679 38,000  Level FlightAware Transoceanic
09:50AM 50.5481 168.4222 60° Northeast 590 679 38,000  Level FlightAware Transoceanic
09:50AM 50.6500 168.7333 61° Northeast 610 702 38,000  Level Anchorage Center
09:51AM 50.6236 168.6281 60° Northeast 590 679 38,000  Level FlightAware Transoceanic
09:51AM 50.7333 168.9333 57° Northeast 600 690 38,000  Level Anchorage Center
09:52AM 50.6987 168.8346 60° Northeast 590 679 38,000  Level FlightAware Transoceanic
09:52AM 50.8167 169.1833 62° Northeast 610 702 38,000  Level Anchorage Center
09:53AM 50.7734 169.0417 60° Northeast 590 679 38,000  Level FlightAware Transoceanic
09:53AM 50.8833 169.3833 62° Northeast 620 713 38,000  Level Anchorage Center
09:54AM 50.8478 169.2496 61° Northeast 590 679 38,000  Level FlightAware Transoceanic
09:54AM 50.9833 169.6500 59° Northeast 610 702 38,000  Level Anchorage Center
09:55AM 50.9217 169.4581 61° Northeast 590 679 38,000  Level FlightAware Transoceanic
09:55AM 51.0667 169.9000 62° Northeast 620 713 38,000  Level Anchorage Center
09:56AM 51.1500 170.1000 56° Northeast 610 702 38,000  Level Anchorage Center
09:57AM 51.2333 170.3500 62° Northeast 620 713 38,000  Level Anchorage Center
09:58AM 51.3000 170.5667 64° Northeast 620 713 38,000  Level Anchorage Center
09:59AM 51.3833 170.8333 63° Northeast 610 702 38,000  Level Anchorage Center
10:00AM 51.4667 171.0333 56° Northeast 610 702 38,000  Level Anchorage Center
10:01AM 51.5167 171.3000 73° East 580 667 38,000  Level Anchorage Center
10:02AM 51.5333 171.6000 85° East 600 690 38,000  Level Anchorage Center
10:03AM 51.5500 171.8333 83° East 600 690 38,000  Level Anchorage Center
10:04AM 51.5833 172.1167 79° East 590 679 38,000  Level Anchorage Center
10:05AM 51.6000 172.3500 83° East 610 702 38,000  Level Anchorage Center
10:06AM 51.6333 172.6333 79° East 600 690 38,000  Level Anchorage Center
10:07AM 51.6500 172.8667 83° East 600 690 38,000  Level Anchorage Center
10:08AM 51.6667 173.1500 84° East 600 690 38,000  Level Anchorage Center
10:09AM 51.6833 173.4333 84° East 610 702 38,000  Level Anchorage Center
10:10AM 51.7000 173.6667 83° East 600 690 38,000  Level Anchorage Center
10:11AM 51.7333 173.9500 79° East 590 679 38,000  Level Anchorage Center
10:12AM 51.7500 174.1833 83° East 590 679 38,000  Level Anchorage Center
10:13AM 51.7667 174.4833 85° East 590 679 38,000  Level Anchorage Center
10:14AM 51.7833 174.7000 83° East 590 679 38,000  Level Anchorage Center
10:15AM 51.8000 175.0000 85° East 600 690 38,000  Level Anchorage Center
10:16AM 51.8167 175.2833 84° East 600 690 38,000  Level Anchorage Center
10:17AM 51.8167 175.5167 90° East 600 690 38,000 480 Level Anchorage Center
10:18AM 51.8500 175.8167 80° East 600 690 39,000 480 Climbing Anchorage Center
10:19AM 51.8500 176.0500 90° East 590 679 39,000  Level Anchorage Center
10:20AM 51.8667 176.3333 84° East 600 690 39,000  Level Anchorage Center
10:21AM 51.8833 176.5667 83° East 600 690 39,000  Level Anchorage Center
10:22AM 51.9000 176.8500 84° East 590 679 39,000  Level Anchorage Center
10:23AM 51.9167 177.1500 85° East 610 702 39,000  Level Anchorage Center
10:24AM 51.9167 177.3833 90° East 600 690 39,000  Level Anchorage Center
10:25AM 51.9333 177.6667 84° East 590 679 39,000  Level Anchorage Center
10:26AM 51.9333 177.9167 90° East 600 690 39,000  Level Anchorage Center
10:27AM 51.9500 178.2000 84° East 610 702 39,000  Level Anchorage Center
10:28AM 51.9500 178.4333 90° East 600 690 39,000  Level Anchorage Center
10:29AM 51.9667 178.7333 85° East 600 690 39,000  Level Anchorage Center
10:30AM 51.9667 179.0333 90° East 590 679 39,000  Level Anchorage Center
10:31AM 51.9833 179.2667 83° East 600 690 39,000  Level Anchorage Center
10:32AM 51.9833 179.5500 90° East 600 690 39,000  Level Anchorage Center
10:33AM 51.9833 179.8000 90° East 590 679 39,000  Level Anchorage Center
10:34AM 51.9833 -179.9000 90° East 600 690 39,000  Level Anchorage Center
10:35AM 52.0000 -179.6500 84° East 600 690 39,000  Level Anchorage Center
10:36AM 52.0167 -179.3667 84° East 610 702 39,000  Level Anchorage Center
10:39AM 52.0282 -178.9302 87° East  Level FlightAware Approximate
10:46AM 52.0580 -177.1989 88° East  Level FlightAware Approximate
10:46AM 52.1000 -176.6500 89° East 601 692 39,000  Level Anchorage Center
10:47AM 52.0602 -176.9514 89° East  Level FlightAware Approximate
10:48AM 52.0619 -176.7039 89° East  Level FlightAware Approximate
10:49AM 52.0631 -176.4564 89° East  Level FlightAware Approximate
10:50AM 52.0637 -176.2089 90° East  Level FlightAware Approximate
10:51AM 52.0638 -175.9614 90° East  Level FlightAware Approximate
10:52AM 52.1102 -175.0522 90° East 601 692 39,000  Level FlightAware Transoceanic
10:53AM 52.1098 -174.7858 90° East 601 692 39,000  Level FlightAware Transoceanic
10:54AM 52.1087 -174.5195 90° East 601 692 39,000  Level FlightAware Transoceanic
10:55AM 52.1072 -174.2532 91° East 601 692 39,000  Level FlightAware Transoceanic
10:55AM 52.1000 -174.0500 91° East 602 693 39,000  Level Anchorage Center
10:56AM 52.1049 -173.9869 91° East 601 692 39,000  Level FlightAware Transoceanic
10:57AM 52.1021 -173.7206 91° East 601 692 39,000  Level FlightAware Transoceanic
10:58AM 52.0987 -173.4544 91° East 601 692 39,000  Level FlightAware Transoceanic
10:59AM 52.0947 -173.1882 92° East 601 692 39,000  Level FlightAware Transoceanic
11:00AM 52.0901 -172.9220 92° East 601 692 39,000  Level FlightAware Transoceanic
11:01AM 52.0849 -172.6560 92° East 601 692 39,000  Level FlightAware Transoceanic
11:02AM 52.0767 -172.4279 92° East 602 693 39,000  Level FlightAware Transoceanic
11:03AM 52.0706 -172.1578 92° East 602 693 39,000  Level FlightAware Transoceanic
11:04AM 52.0639 -171.8877 92° East 602 693 39,000  Level FlightAware Transoceanic
11:05AM 52.0567 -171.6177 93° East 602 693 39,000  Level FlightAware Transoceanic
11:05AM 52.0500 -171.4500 93° East 595 685 39,000  Level Anchorage Center
11:06AM 52.0488 -171.3478 93° East 602 693 39,000  Level FlightAware Transoceanic
11:07AM 52.0402 -171.0780 93° East 602 693 39,000  Level FlightAware Transoceanic
11:08AM 52.0311 -170.8083 93° East 602 693 39,000  Level FlightAware Transoceanic
11:09AM 52.0214 -170.5388 93° East 602 693 39,000  Level FlightAware Transoceanic
11:10AM 52.0110 -170.2693 94° East 602 693 39,000  Level FlightAware Transoceanic
11:11AM 52.0000 -170.0000 95° East 595 685 39,000  Level FlightAware Transoceanic
11:11AM 52.0000 -170.0000 95° East 592 681 39,000  Level Anchorage Center
11:12AM 51.9859 -169.7515 95° East 595 685 39,000  Level FlightAware Transoceanic
11:13AM 51.9712 -169.5032 96° East 595 685 39,000  Level FlightAware Transoceanic
11:14AM 51.9560 -169.2551 96° East 595 685 39,000  Level FlightAware Transoceanic
11:15AM 51.9403 -169.0071 96° East 595 685 39,000  Level FlightAware Transoceanic
11:15AM 51.9333 -168.9000 96° East 589 678 39,000  Level Anchorage Center
11:16AM 51.9240 -168.7593 96° East 595 685 39,000  Level FlightAware Transoceanic
11:17AM 51.8992 -168.3945 96° East 592 681 39,000  Level FlightAware Transoceanic
11:18AM 51.8802 -168.1276 97° East 592 681 39,000  Level FlightAware Transoceanic
11:19AM 51.8607 -167.8610 97° East 592 681 39,000  Level FlightAware Transoceanic
11:20AM 51.8406 -167.5946 97° East 592 681 39,000  Level FlightAware Transoceanic
11:21AM 51.8180 -167.3048 97° East 589 678 39,000  Level FlightAware Transoceanic
11:22AM 51.7967 -167.0398 98° East 589 678 39,000  Level FlightAware Transoceanic
11:23AM 51.7747 -166.7750 98° East 589 678 39,000  Level FlightAware Transoceanic
11:24AM 51.7522 -166.5105 98° East 589 678 39,000  Level FlightAware Transoceanic
11:25AM 51.7291 -166.2462 98° East 589 678 39,000  Level FlightAware Transoceanic
11:26AM 51.7054 -165.9822 98° East 589 678 39,000  Level FlightAware Transoceanic
11:27AM 51.6812 -165.7185 99° East 589 678 39,000  Level FlightAware Transoceanic
11:28AM 51.6563 -165.4551 99° East 589 678 39,000  Level FlightAware Transoceanic
11:29AM 51.6308 -165.1920 99° East 589 678 39,000  Level FlightAware Transoceanic
11:30AM 51.6048 -164.9291 99° East 589 678 39,000  Level FlightAware Transoceanic
11:31AM 51.5782 -164.6666 99° East 589 678 39,000  Level FlightAware Transoceanic
11:32AM 51.5509 -164.4044 100° East 589 678 39,000  Level FlightAware Transoceanic
11:33AM 51.5231 -164.1425 100° East 589 678 39,000  Level FlightAware Transoceanic
11:34AM 51.4947 -163.8809 100° East 589 678 39,000  Level FlightAware Transoceanic
11:35AM 51.4658 -163.6197 100° East 589 678 39,000  Level FlightAware Transoceanic
11:35AM 51.4667 -163.6333 100° East 567 652 39,000  Level Oakland Oceanic (ODAPS)
11:36AM 51.4362 -163.3588 100° East 589 678 39,000  Level FlightAware Transoceanic
11:37AM 51.4061 -163.0982 101° East 589 678 39,000  Level FlightAware Transoceanic
11:38AM 51.3754 -162.8380 101° East 589 678 39,000  Level FlightAware Transoceanic
11:39AM 51.3441 -162.5781 101° East 589 678 39,000  Level FlightAware Transoceanic
11:40AM 51.3123 -162.3186 101° East 589 678 39,000  Level FlightAware Transoceanic
11:41AM 51.2798 -162.0595 101° East 589 678 39,000  Level FlightAware Transoceanic
11:42AM 51.2629 -161.9286 102° East 567 652 39,000  Level FlightAware Transoceanic
11:43AM 51.2318 -161.6864 102° East 567 652 39,000  Level FlightAware Transoceanic
11:44AM 51.2001 -161.4444 102° East 567 652 39,000  Level FlightAware Transoceanic
11:45AM 51.1680 -161.2028 102° East 567 652 39,000  Level FlightAware Transoceanic
11:46AM 51.1354 -160.9616 102° East 567 652 39,000  Level FlightAware Transoceanic
11:47AM 51.1023 -160.7207 102° East 567 652 39,000  Level FlightAware Transoceanic
11:48AM 51.0687 -160.4801 103° East 567 652 39,000  Level FlightAware Transoceanic
11:49AM 51.0346 -160.2399 103° East 567 652 39,000  Level FlightAware Transoceanic
11:50AM 51.0000 -160.0000 103° East 567 652 39,000  Level FlightAware Transoceanic
11:50AM 51.0333 -160.2833 100° East 547 629 39,000  Level Oakland Oceanic (ODAPS)
11:50AM 51.0000 -160.0000 103° East 555 639 39,000  Level Oakland Oceanic (ODAPS)
11:51AM 50.9666 -159.7790 104° East 567 652 39,000  Level FlightAware Transoceanic
11:52AM 50.9328 -159.5583 104° East 567 652 39,000  Level FlightAware Transoceanic
11:53AM 50.8986 -159.3379 104° East 567 652 39,000  Level FlightAware Transoceanic
11:54AM 50.8640 -159.1178 104° East 567 652 39,000  Level FlightAware Transoceanic
11:55AM 50.8289 -158.8981 104° East 567 652 39,000  Level FlightAware Transoceanic
11:56AM 50.7788 -158.5890 105° East 555 639 39,000  Level FlightAware Transoceanic
11:57AM 50.7403 -158.3552 105° East 555 639 39,000  Level FlightAware Transoceanic
11:58AM 50.7014 -158.1217 105° East 555 639 39,000  Level FlightAware Transoceanic
11:59AM 50.6619 -157.8886 105° East 555 639 39,000  Level FlightAware Transoceanic
12:00PM 50.6220 -157.6560 105° East 555 639 39,000  Level FlightAware Transoceanic
12:01PM 50.5816 -157.4237 105° East 555 639 39,000  Level FlightAware Transoceanic
12:02PM 50.5408 -157.1918 106° East 555 639 39,000  Level FlightAware Transoceanic
12:03PM 50.4995 -156.9603 106° East 555 639 39,000  Level FlightAware Transoceanic
12:03PM 50.5167 -157.0500 106° East 554 638 39,000  Level Oakland Oceanic (ODAPS)
12:04PM 50.4578 -156.7293 106° East 555 639 39,000  Level FlightAware Transoceanic
12:05PM 50.4156 -156.4986 106° East 555 639 39,000  Level FlightAware Transoceanic
12:06PM 50.3729 -156.2684 106° East 555 639 39,000  Level FlightAware Transoceanic
12:07PM 50.3298 -156.0385 106° East 555 639 39,000  Level FlightAware Transoceanic
12:08PM 50.2862 -155.8091 107° East 555 639 39,000  Level FlightAware Transoceanic
12:09PM 50.2569 -155.6516 107° East 554 638 39,000  Level FlightAware Transoceanic
12:10PM 50.2120 -155.4201 107° East 554 638 39,000  Level FlightAware Transoceanic
12:11PM 50.1666 -155.1890 107° East 554 638 39,000  Level FlightAware Transoceanic
12:12PM 50.1208 -154.9583 107° East 554 638 39,000  Level FlightAware Transoceanic
12:13PM 50.0745 -154.7280 107° East 554 638 39,000  Level FlightAware Transoceanic
12:14PM 50.0277 -154.4983 108° East 554 638 39,000  Level FlightAware Transoceanic
12:15PM 49.9805 -154.2689 108° East 554 638 39,000  Level FlightAware Transoceanic
12:16PM 49.9329 -154.0400 108° East 554 638 39,000  Level FlightAware Transoceanic
12:17PM 49.8848 -153.8116 108° East 554 638 39,000  Level FlightAware Transoceanic
12:17PM 49.9167 -153.9500 108° East 537 618 39,000  Level Oakland Oceanic (ODAPS)
12:18PM 49.8363 -153.5836 108° East 554 638 39,000  Level FlightAware Transoceanic
12:19PM 49.7873 -153.3561 109° East 554 638 39,000  Level FlightAware Transoceanic
12:20PM 49.7378 -153.1290 109° East 554 638 39,000  Level FlightAware Transoceanic
12:21PM 49.6880 -152.9025 109° East 554 638 39,000  Level FlightAware Transoceanic
12:22PM 49.6376 -152.6763 109° East 554 638 39,000  Level FlightAware Transoceanic
12:23PM 49.6261 -152.6170 109° East 537 618 39,000  Level FlightAware Transoceanic
12:24PM 49.5762 -152.3964 109° East 537 618 39,000  Level FlightAware Transoceanic
12:25PM 49.5259 -152.1762 109° East 537 618 39,000  Level FlightAware Transoceanic
12:26PM 49.4752 -151.9565 110° East 537 618 39,000  Level FlightAware Transoceanic
12:27PM 49.4240 -151.7373 110° East 537 618 39,000  Level FlightAware Transoceanic
12:28PM 49.3724 -151.5185 110° East 537 618 39,000  Level FlightAware Transoceanic
12:29PM 49.3204 -151.3002 110° East 537 618 39,000  Level FlightAware Transoceanic
12:30PM 49.2681 -151.0823 110° East 537 618 39,000  Level FlightAware Transoceanic
12:30PM 49.2500 -151.0000 111° Southeast 525 604 39,000  Level Oakland Oceanic (ODAPS)
12:31PM 49.2152 -150.8649 110° East 537 618 39,000  Level FlightAware Transoceanic
12:32PM 49.1620 -150.6480 111° Southeast 537 618 39,000  Level FlightAware Transoceanic
12:33PM 49.1084 -150.4315 111° Southeast 537 618 39,000  Level FlightAware Transoceanic
12:34PM 49.0544 -150.2155 111° Southeast 537 618 39,000  Level FlightAware Transoceanic
12:35PM 49.0000 -150.0000 110° East 537 618 39,000  Level FlightAware Transoceanic
12:35PM 49.0000 -150.0000 110° East 533 613 39,000  Level Oakland Oceanic (ODAPS)
12:36PM 48.9517 -149.8009 110° East 537 618 39,000  Level FlightAware Transoceanic
12:37PM 48.9508 -149.7970 110° East 525 604 39,000  Level FlightAware Transoceanic
12:38PM 48.9012 -149.5945 111° Southeast 525 604 39,000  Level FlightAware Transoceanic
12:39PM 48.8513 -149.3923 111° Southeast 525 604 39,000  Level FlightAware Transoceanic
12:40PM 48.8011 -149.1906 111° Southeast 525 604 39,000  Level FlightAware Transoceanic
12:41PM 48.7504 -148.9893 111° Southeast 525 604 39,000  Level FlightAware Transoceanic
12:42PM 48.6872 -148.7402 111° Southeast 533 613 39,000  Level FlightAware Transoceanic
12:43PM 48.6337 -148.5317 111° Southeast 533 613 39,000  Level FlightAware Transoceanic
12:44PM 48.5799 -148.3237 111° Southeast 533 613 39,000  Level FlightAware Transoceanic
12:44PM 48.5333 -148.1500 112° Southeast 524 603 39,000  Level Oakland Oceanic (ODAPS)
12:45PM 48.5257 -148.1162 112° Southeast 533 613 39,000  Level FlightAware Transoceanic
12:46PM 48.4711 -147.9091 112° Southeast 533 613 39,000  Level FlightAware Transoceanic
12:47PM 48.4161 -147.7024 112° Southeast 533 613 39,000  Level FlightAware Transoceanic
12:48PM 48.3608 -147.4962 112° Southeast 533 613 39,000  Level FlightAware Transoceanic
12:49PM 48.3051 -147.2905 112° Southeast 533 613 39,000  Level FlightAware Transoceanic
12:50PM 48.2491 -147.0852 112° Southeast 533 613 39,000  Level FlightAware Transoceanic
12:51PM 48.2076 -146.9382 112° Southeast 524 603 39,000  Level FlightAware Transoceanic
12:52PM 48.1521 -146.7377 113° Southeast 524 603 39,000  Level FlightAware Transoceanic
12:53PM 48.0962 -146.5377 113° Southeast 524 603 39,000  Level FlightAware Transoceanic
12:54PM 48.0400 -146.3381 113° Southeast 524 603 39,000  Level FlightAware Transoceanic
12:55PM 47.9834 -146.1390 113° Southeast 524 603 39,000  Level FlightAware Transoceanic
12:56PM 47.9265 -145.9402 113° Southeast 524 603 39,000  Level FlightAware Transoceanic
12:57PM 47.8693 -145.7420 113° Southeast 524 603 39,000  Level FlightAware Transoceanic
12:58PM 47.8117 -145.5441 114° Southeast 524 603 39,000  Level FlightAware Transoceanic
12:58PM 47.7667 -145.3667 114° Southeast 529 609 39,000  Level Oakland Oceanic (ODAPS)
12:59PM 47.7538 -145.3467 114° Southeast 524 603 39,000  Level FlightAware Transoceanic
01:00PM 47.6955 -145.1498 114° Southeast 524 603 39,000  Level FlightAware Transoceanic
01:01PM 47.6369 -144.9532 114° Southeast 524 603 39,000  Level FlightAware Transoceanic
01:02PM 47.5780 -144.7572 114° Southeast 524 603 39,000  Level FlightAware Transoceanic
01:03PM 47.5187 -144.5616 114° Southeast 524 603 39,000  Level FlightAware Transoceanic
01:04PM 47.4591 -144.3664 114° Southeast 524 603 39,000  Level FlightAware Transoceanic
01:05PM 47.3960 -144.1436 115° Southeast 529 609 39,000  Level FlightAware Transoceanic
01:06PM 47.3330 -143.9414 115° Southeast 529 609 39,000  Level FlightAware Transoceanic
01:07PM 47.2696 -143.7397 115° Southeast 529 609 39,000  Level FlightAware Transoceanic
01:08PM 47.2058 -143.5385 115° Southeast 529 609 39,000  Level FlightAware Transoceanic
01:09PM 47.1418 -143.3378 115° Southeast 529 609 39,000  Level FlightAware Transoceanic
01:10PM 47.0773 -143.1376 115° Southeast 529 609 39,000  Level FlightAware Transoceanic
01:11PM 47.0125 -142.9378 116° Southeast 529 609 39,000  Level FlightAware Transoceanic
01:12PM 46.9474 -142.7386 116° Southeast 529 609 39,000 600 Level FlightAware Transoceanic
01:12PM 46.9167 -142.6500 116° Southeast 525 604 40,000  Climbing Oakland Oceanic (ODAPS)
01:13PM 46.8819 -142.5398 116° Southeast 529 609 39,000 -720 Descending FlightAware Transoceanic
01:14PM 46.8161 -142.3415 116° Southeast 529 609 39,000  Level FlightAware Transoceanic
01:15PM 46.7499 -142.1437 116° Southeast 529 609 39,000  Level FlightAware Transoceanic
01:16PM 46.6834 -141.9464 116° Southeast 529 609 39,000  Level FlightAware Transoceanic
01:17PM 46.6166 -141.7496 116° Southeast 529 609 39,000 480 Level FlightAware Transoceanic
01:18PM 46.5313 -141.5034 117° Southeast 525 604 40,000 480 Climbing FlightAware Transoceanic
01:19PM 46.4660 -141.3138 117° Southeast 525 604 40,000  Level FlightAware Transoceanic
01:20PM 46.4003 -141.1248 117° Southeast 525 604 40,000  Level FlightAware Transoceanic
01:21PM 46.3344 -140.9362 117° Southeast 525 604 40,000  Level FlightAware Transoceanic
01:22PM 46.2681 -140.7480 117° Southeast 525 604 40,000  Level FlightAware Transoceanic
01:23PM 46.2015 -140.5603 117° Southeast 525 604 40,000  Level FlightAware Transoceanic
01:24PM 46.1347 -140.3731 117° Southeast 525 604 40,000  Level FlightAware Transoceanic
01:25PM 46.0675 -140.1863 117° Southeast 525 604 40,000  Level FlightAware Transoceanic
01:26PM 46.0000 -140.0000 116° Southeast 525 604 40,000 660 Level FlightAware Transoceanic
01:26PM 46.0333 -140.0833 120° Southeast 513 590 41,000 1,020 Climbing Oakland Oceanic (ODAPS)
01:26PM 46.0000 -140.0000 116° Southeast 524 603 41,000 -1,800 Level Oakland Oceanic (ODAPS)
01:27PM 45.9388 -139.8161 116° Southeast 525 604 40,000 -960 Descending FlightAware Transoceanic
01:28PM 45.8772 -139.6325 116° Southeast 525 604 40,000  Level FlightAware Transoceanic
01:29PM 45.8154 -139.4494 116° Southeast 525 604 40,000  Level FlightAware Transoceanic
01:30PM 45.7533 -139.2667 116° Southeast 525 604 40,000  Level FlightAware Transoceanic
01:31PM 45.6908 -139.0844 116° Southeast 525 604 40,000 480 Level FlightAware Transoceanic
01:32PM 45.6854 -139.0684 116° Southeast 513 590 41,000 480 Climbing FlightAware Transoceanic
01:33PM 45.6147 -138.8635 116° Southeast 524 603 41,000  Level FlightAware Transoceanic
01:34PM 45.5494 -138.6756 116° Southeast 524 603 41,000  Level FlightAware Transoceanic
01:35PM 45.4837 -138.4882 117° Southeast 524 603 41,000  Level FlightAware Transoceanic
01:36PM 45.4178 -138.3012 117° Southeast 524 603 41,000  Level FlightAware Transoceanic
01:37PM 45.3516 -138.1146 117° Southeast 524 603 41,000  Level FlightAware Transoceanic
01:38PM 45.2851 -137.9285 117° Southeast 524 603 41,000  Level FlightAware Transoceanic
01:39PM 45.2182 -137.7428 117° Southeast 524 603 41,000  Level FlightAware Transoceanic
01:40PM 45.1511 -137.5575 117° Southeast 524 603 41,000  Level FlightAware Transoceanic
01:40PM 45.1500 -137.5500 117° Southeast 527 606 41,000  Level Oakland Oceanic (ODAPS)
01:41PM 45.0837 -137.3727 117° Southeast 524 603 41,000  Level FlightAware Transoceanic
01:42PM 45.0159 -137.1883 118° Southeast 524 603 41,000  Level FlightAware Transoceanic
01:43PM 44.9479 -137.0044 118° Southeast 524 603 41,000  Level FlightAware Transoceanic
01:44PM 44.8796 -136.8209 118° Southeast 524 603 41,000  Level FlightAware Transoceanic
01:45PM 44.8110 -136.6378 118° Southeast 524 603 41,000  Level FlightAware Transoceanic
01:46PM 44.7411 -136.4487 118° Southeast 527 606 41,000  Level FlightAware Transoceanic
01:47PM 44.6719 -136.2667 118° Southeast 527 606 41,000  Level FlightAware Transoceanic
01:48PM 44.6024 -136.0851 118° Southeast 527 606 41,000  Level FlightAware Transoceanic
01:49PM 44.5327 -135.9040 118° Southeast 527 606 41,000  Level FlightAware Transoceanic
01:50PM 44.4626 -135.7233 119° Southeast 527 606 41,000  Level FlightAware Transoceanic
01:51PM 44.3923 -135.5430 119° Southeast 527 606 41,000  Level FlightAware Transoceanic
01:52PM 44.3217 -135.3631 119° Southeast 527 606 41,000  Level FlightAware Transoceanic
01:53PM 44.2508 -135.1837 119° Southeast 527 606 41,000  Level FlightAware Transoceanic
01:54PM 44.1796 -135.0047 119° Southeast 527 606 41,000  Level FlightAware Transoceanic
01:54PM 44.2000 -135.0500 119° Southeast 530 610 41,000  Level Oakland Oceanic (ODAPS)
01:55PM 44.1082 -134.8262 119° Southeast 527 606 41,000  Level FlightAware Transoceanic
01:56PM 44.0365 -134.6481 119° Southeast 527 606 41,000  Level FlightAware Transoceanic
01:57PM 43.9645 -134.4704 119° Southeast 527 606 41,000  Level FlightAware Transoceanic
01:58PM 43.8922 -134.2931 120° Southeast 527 606 41,000  Level FlightAware Transoceanic
01:59PM 43.8197 -134.1163 120° Southeast 527 606 41,000  Level FlightAware Transoceanic
02:00PM 43.7633 -133.9752 120° Southeast 530 610 41,000  Level FlightAware Transoceanic
02:01PM 43.6896 -133.7977 120° Southeast 530 610 41,000  Level FlightAware Transoceanic
02:02PM 43.6155 -133.6205 120° Southeast 530 610 41,000  Level FlightAware Transoceanic
02:03PM 43.5412 -133.4438 120° Southeast 530 610 41,000  Level FlightAware Transoceanic
02:04PM 43.4667 -133.2675 120° Southeast 530 610 41,000  Level FlightAware Transoceanic
02:05PM 43.3918 -133.0916 120° Southeast 530 610 41,000  Level FlightAware Transoceanic
02:06PM 43.3167 -132.9162 121° Southeast 530 610 41,000  Level FlightAware Transoceanic
02:07PM 43.2413 -132.7413 121° Southeast 530 610 41,000  Level FlightAware Transoceanic
02:08PM 43.1657 -132.5667 121° Southeast 530 610 41,000  Level FlightAware Transoceanic
02:08PM 43.1833 -132.6000 121° Southeast 535 616 41,000  Level Oakland Oceanic (ODAPS)
02:09PM 43.0898 -132.3926 121° Southeast 530 610 41,000  Level FlightAware Transoceanic
02:10PM 43.0136 -132.2189 121° Southeast 530 610 41,000  Level FlightAware Transoceanic
02:11PM 42.9372 -132.0457 121° Southeast 530 610 41,000  Level FlightAware Transoceanic
02:12PM 42.8605 -131.8728 121° Southeast 530 610 41,000  Level FlightAware Transoceanic
02:13PM 42.7835 -131.7005 121° Southeast 530 610 41,000  Level FlightAware Transoceanic
02:14PM 42.7171 -131.5481 122° Southeast 535 616 41,000  Level FlightAware Transoceanic
02:15PM 42.6384 -131.3744 122° Southeast 535 616 41,000  Level FlightAware Transoceanic
02:16PM 42.5595 -131.2010 122° Southeast 535 616 41,000  Level FlightAware Transoceanic
02:17PM 42.4804 -131.0282 122° Southeast 535 616 41,000  Level FlightAware Transoceanic
02:18PM 42.4010 -130.8557 122° Southeast 535 616 41,000  Level FlightAware Transoceanic
02:19PM 42.3213 -130.6837 122° Southeast 535 616 41,000  Level FlightAware Transoceanic
02:20PM 42.2413 -130.5121 122° Southeast 535 616 41,000  Level FlightAware Transoceanic
02:21PM 42.1611 -130.3410 122° Southeast 535 616 41,000  Level FlightAware Transoceanic
02:21PM 42.1167 -130.2500 122° Southeast 522 601 41,000  Level Oakland Oceanic (ODAPS)
02:22PM 42.0807 -130.1703 122° Southeast 535 616 41,000  Level FlightAware Transoceanic
02:23PM 42.0000 -130.0000 126° Southeast 535 616 41,000  Level FlightAware Transoceanic
02:23PM 42.0000 -130.0000 126° Southeast 527 606 41,000  Level Oakland Oceanic (ODAPS)
02:24PM 41.9125 -129.8382 126° Southeast 535 616 41,000  Level FlightAware Transoceanic
02:25PM 41.8248 -129.6768 126° Southeast 535 616 41,000  Level FlightAware Transoceanic
02:26PM 41.7368 -129.5159 126° Southeast 535 616 41,000  Level FlightAware Transoceanic
02:27PM 41.6486 -129.3554 126° Southeast 535 616 41,000  Level FlightAware Transoceanic
02:28PM 41.5824 -129.2353 126° Southeast 522 601 41,000  Level FlightAware Transoceanic
02:29PM 41.4982 -129.0836 127° Southeast 527 606 41,000  Level FlightAware Transoceanic
02:30PM 41.4139 -128.9322 127° Southeast 527 606 41,000  Level FlightAware Transoceanic
02:31PM 41.3294 -128.7813 127° Southeast 527 606 41,000  Level FlightAware Transoceanic
02:32PM 41.2447 -128.6307 127° Southeast 527 606 41,000  Level FlightAware Transoceanic
02:33PM 41.1597 -128.4805 127° Southeast 527 606 41,000  Level FlightAware Transoceanic
02:34PM 41.0746 -128.3308 127° Southeast 527 606 41,000  Level FlightAware Transoceanic
02:35PM 40.9893 -128.1814 127° Southeast 527 606 41,000  Level FlightAware Transoceanic
02:36PM 40.9038 -128.0324 127° Southeast 527 606 41,000  Level FlightAware Transoceanic
02:36PM 40.9333 -128.0833 127° Southeast 526 605 41,000  Level Oakland Oceanic (ODAPS)
02:37PM 40.8181 -127.8837 127° Southeast 527 606 41,000  Level FlightAware Transoceanic
02:38PM 40.7322 -127.7355 127° Southeast 527 606 41,000  Level FlightAware Transoceanic
02:39PM 40.6462 -127.5876 128° Southeast 527 606 41,000  Level FlightAware Transoceanic
02:40PM 40.5599 -127.4402 128° Southeast 527 606 41,000 -120 Level FlightAware Transoceanic
02:40PM 40.5403 -127.4058 113° Southeast 521 600 40,900  Descending Oakland Center
02:41PM 40.4734 -127.2931 128° Southeast 527 606 41,000 60 Climbing FlightAware Transoceanic
02:41PM 40.4522 -127.2556 128° Southeast 522 601 41,000  Level Oakland Center
02:42PM 40.3911 -127.1535 128° Southeast 526 605 41,000 -120 Level FlightAware Transoceanic
02:42PM 40.3469 -127.0769 128° Southeast 520 598 40,900  Descending Oakland Center
02:43PM 40.3000 -127.0000 112° Southeast 526 605 41,000 60 Climbing FlightAware Transoceanic
02:44PM 40.2432 -126.8192 112° Southeast 526 605 41,000  Level FlightAware Transoceanic
02:45PM 40.1862 -126.6386 113° Southeast 526 605 41,000  Level FlightAware Transoceanic
02:48PM 39.8550 -126.1350 128° Southeast 533 613 41,000  Level FlightAware
02:48PM 39.8000 -126.0470 129° Southeast 533 613 41,000  Level FlightAware
02:49PM 39.7440 -125.9560 129° Southeast 533 613 41,000  Level FlightAware
02:50PM 39.6880 -125.8700 130° Southeast 534 615 41,000  Level FlightAware
02:50PM 39.6310 -125.7790 129° Southeast 533 613 41,000  Level FlightAware
02:51PM 39.5790 -125.6970 129° Southeast 537 618 41,000  Level FlightAware
02:51PM 39.5250 -125.6110 129° Southeast 537 618 41,000  Level FlightAware
02:52PM 39.4520 -125.4970 130° Southeast 537 618 41,000  Level FlightAware
02:53PM 39.3940 -125.4080 130° Southeast 541 623 41,000  Level FlightAware
02:54PM 39.3080 -125.2730 129° Southeast 539 620 41,000  Level FlightAware
02:54PM 39.2400 -125.1670 130° Southeast 539 620 41,000  Level FlightAware
02:55PM 39.1850 -125.0840 131° Southeast 540 621 41,000  Level FlightAware
02:55PM 39.1300 -124.9990 130° Southeast 541 623 41,000  Level FlightAware
02:56PM 39.0720 -124.9090 130° Southeast 542 624 41,000  Level FlightAware
02:57PM 39.0180 -124.8260 130° Southeast 544 626 41,000  Level FlightAware
02:57PM 38.9670 -124.7480 130° Southeast 545 627 41,000  Level FlightAware
02:58PM 38.9030 -124.6510 130° Southeast 545 627 41,000  Level FlightAware
02:58PM 38.8450 -124.5630 130° Southeast 545 627 41,000  Level FlightAware
02:59PM 38.7960 -124.4880 130° Southeast 545 627 41,000  Level FlightAware
03:00PM 38.7320 -124.3910 130° Southeast 546 628 41,000  Level FlightAware
03:00PM 38.6730 -124.3030 131° Southeast 544 626 41,000  Level FlightAware
03:01PM 38.6210 -124.2240 130° Southeast 545 627 41,000  Level FlightAware
03:01PM 38.5610 -124.1350 131° Southeast 547 629 41,000  Level FlightAware
03:02PM 38.5060 -124.0530 131° Southeast 549 632 41,000  Level FlightAware
03:02PM 38.4440 -123.9590 130° Southeast 549 632 41,000  Level FlightAware
03:03PM 38.3940 -123.8850 131° Southeast 549 632 41,000  Level FlightAware
03:04PM 38.3340 -123.7930 130° Southeast 550 633 41,000  Level FlightAware
03:04PM 38.2750 -123.7050 130° Southeast 550 633 41,000  Level FlightAware
03:05PM 38.2250 -123.6300 130° Southeast 550 633 41,000  Level FlightAware
03:05PM 38.1640 -123.5390 130° Southeast 550 633 41,000  Level FlightAware
03:06PM 38.1060 -123.4510 130° Southeast 550 633 41,000  Level FlightAware
03:07PM 38.0420 -123.3570 131° Southeast 551 634 41,000  Level FlightAware
03:07PM 37.9820 -123.2680 131° Southeast 553 636 41,000  Level FlightAware
03:08PM 37.9270 -123.1860 130° Southeast 554 638 41,000  Level FlightAware
03:08PM 37.8690 -123.1000 130° Southeast 554 638 41,000  Level FlightAware
03:09PM 37.8150 -123.0210 131° Southeast 554 638 41,000  Level FlightAware
03:09PM 37.7500 -122.9260 131° Southeast 556 640 41,000  Level FlightAware
03:10PM 37.6990 -122.8510 131° Southeast 557 641 41,000  Level FlightAware
03:11PM 37.6420 -122.7680 131° Southeast 558 642 41,000  Level FlightAware
03:11PM 37.5560 -122.6430 131° Southeast 558 642 41,000  Level FlightAware
03:12PM 37.4982 -122.5590 131° Southeast 560 644 41,000  Level FlightAware ADS-B
03:13PM 37.4388 -122.4730 131° Southeast 559 643 41,000  Level FlightAware ADS-B
03:13PM 37.3856 -122.3960 131° Southeast 559 643 41,000  Level FlightAware ADS-B
03:14PM 37.3229 -122.3050 131° Southeast 559 643 41,000  Level FlightAware ADS-B
03:14PM 37.2700 -122.2300 132° Southeast 558 642 41,000  Level FlightAware ADS-B
03:15PM 37.2192 -122.1570 131° Southeast 554 638 41,000  Level FlightAware ADS-B
03:15PM 37.1686 -122.0840 131° Southeast 544 626 41,000  Level FlightAware ADS-B
03:16PM 37.1109 -122.0020 131° Southeast 534 615 41,000  Level FlightAware ADS-B
03:16PM 37.0577 -121.9260 131° Southeast 531 611 41,000  Level FlightAware ADS-B
03:17PM 36.9991 -121.8430 131° Southeast 531 611 41,000  Level FlightAware ADS-B
03:17PM 36.9505 -121.7740 131° Southeast 530 610 41,000  Level FlightAware ADS-B
03:18PM 36.8999 -121.7020 131° Southeast 531 611 41,000  Level FlightAware ADS-B
03:19PM 36.8483 -121.6300 132° Southeast 531 611 41,000  Level FlightAware ADS-B
03:19PM 36.7890 -121.5470 132° Southeast 529 609 41,000  Level FlightAware
03:19PM 36.7726 -121.5230 130° Southeast 530 610 41,000  Level FlightAware ADS-B
03:20PM 36.7184 -121.4470 132° Southeast 528 608 41,000  Level FlightAware ADS-B
03:20PM 36.6662 -121.3740 132° Southeast 528 608 41,000  Level FlightAware ADS-B
03:21PM 36.5998 -121.2810 132° Southeast 526 605 41,000  Level FlightAware ADS-B
03:22PM 36.5484 -121.2100 132° Southeast 526 605 41,000  Level FlightAware ADS-B
03:23PM 36.4490 -121.0720 132° Southeast 527 606 41,000  Level FlightAware
03:23PM 36.4322 -121.0480 131° Southeast 526 605 41,000  Level FlightAware ADS-B
03:24PM 36.3350 -120.9140 132° Southeast 527 606 41,000  Level FlightAware
03:24PM 36.2770 -120.8350 132° Southeast 526 605 41,000  Level FlightAware
03:25PM 36.2280 -120.7670 132° Southeast 526 605 41,000  Level FlightAware
03:26PM 36.1690 -120.6860 132° Southeast 524 603 41,000  Level FlightAware
03:26PM 36.1150 -120.6030 129° Southeast 531 611 41,000  Level FlightAware
03:27PM 36.0760 -120.4950 114° Southeast 535 616 41,000  Level FlightAware
03:27PM 36.0460 -120.4020 112° Southeast 536 617 41,000  Level FlightAware ADS-B
03:28PM 36.0120 -120.3000 112° Southeast 533 613 41,000  Level FlightAware
03:28PM 35.9720 -120.2320 126° Southeast 519 597 41,000  Level FlightAware
03:29PM 35.9210 -120.1800 140° Southeast 503 579 41,000  Level FlightAware
03:29PM 35.8500 -120.1280 149° Southeast 499 574 41,000  Level FlightAware
03:30PM 35.7860 -120.0810 149° Southeast 496 571 41,000  Level FlightAware
03:31PM 35.7150 -120.0290 149° Southeast 494 568 41,000  Level FlightAware
03:31PM 35.6450 -119.9750 148° Southeast 497 572 41,000 -480 Level FlightAware
03:32PM 35.5850 -119.9250 146° Southeast 499 574 40,500 -1,980 Descending FlightAware
03:32PM 35.5160 -119.8650 145° Southeast 510 587 38,800 -1,860 Descending FlightAware
03:33PM 35.4460 -119.8060 146° Southeast 516 594 38,200 -480 Descending FlightAware
03:34PM 35.3870 -119.7540 144° Southeast 516 594 38,200  Level FlightAware
03:34PM 35.3270 -119.7030 145° Southeast 516 594 38,200  Level FlightAware
03:35PM 35.2670 -119.6520 145° Southeast 516 594 38,200  Level FlightAware
03:35PM 35.2070 -119.6000 145° Southeast 516 594 38,200  Level FlightAware
03:36PM 35.1470 -119.5490 145° Southeast 516 594 38,200 -9,060 Level FlightAware
03:37PM 35.0110 -119.4320 145° Southeast 530 610 27,500 -8,940 Descending FlightAware
03:37PM 34.9490 -119.3770 144° Southeast 530 610 27,500 -2,280 Level FlightAware
03:38PM 34.8600 -119.3040 146° Southeast 505 581 24,700 -2,520 Descending FlightAware
03:38PM 34.7910 -119.2460 145° Southeast 498 573 24,300 -1,380 Descending FlightAware
03:39PM 34.7270 -119.1910 145° Southeast 442 509 23,000 -2,400 Descending FlightAware
03:40PM 34.6730 -119.1460 146° Southeast 431 496 21,600 -2,460 Descending FlightAware
03:40PM 34.6120 -119.0950 145° Southeast 420 483 20,100 -2,100 Descending FlightAware
03:41PM 34.5500 -119.0430 145° Southeast 403 464 19,000 -1,320 Descending FlightAware
03:41PM 34.5000 -119.0010 145° Southeast 401 461 18,600 -1,380 Descending FlightAware
03:42PM 34.4460 -118.9560 145° Southeast 393 452 17,500 -1,920 Descending FlightAware
03:43PM 34.3970 -118.9150 145° Southeast 383 441 16,400 -2,040 Descending FlightAware
03:43PM 34.3440 -118.8780 150° Southeast 369 425 15,200 -1,920 Descending FlightAware
03:44PM 34.2850 -118.8550 162° South 359 413 14,100 -1,740 Descending FlightAware
03:44PM 34.2270 -118.8330 163° South 355 409 13,100 -1,560 Descending FlightAware
03:45PM 34.1990 -118.8250 167° South 350 403 12,700 -1,140 Descending FlightAware
03:45PM 34.1590 -118.8320 188° South 326 375 12,300 -600 Descending FlightAware
03:46PM 34.1080 -118.8540 200° South 300 345 12,100 -540 Descending FlightAware
03:46PM 34.0610 -118.8740 199° South 282 325 11,700 -660 Descending FlightAware
03:47PM 34.0380 -118.8790 190° South 280 322 11,500 -780 Descending FlightAware
03:47PM 34.0110 -118.8650 157° South 282 325 11,200 -960 Descending FlightAware
03:47PM 34.0040 -118.8440 112° Southeast 283 326 10,900 -840 Descending FlightAware
03:48PM 34.0120 -118.7930 79° East 267 307 10,500 -720 Descending FlightAware
03:48PM 34.0220 -118.7500 74° East 259 298 10,100 -480 Descending FlightAware
03:49PM 34.0260 -118.7180 81° East 260 299 10,100  Level FlightAware
03:49PM 34.0230 -118.6620 94° East 260 299 10,100 -120 Level FlightAware
03:50PM 34.0210 -118.6380 96° East 255 293 10,000 -1,020 Descending FlightAware
03:50PM 34.0190 -118.6030 94° East 256 295 9,400 -1,440 Descending FlightAware
03:50PM 34.0170 -118.5700 94° East 252 290 8,900 -1,260 Descending FlightAware
03:51PM 34.0160 -118.5430 93° East 251 289 8,500 -1,260 Descending FlightAware
03:51PM 34.0140 -118.5150 95° East 250 288 8,100 -1,440 Descending FlightAware
03:51PM 34.0120 -118.4890 95° East 238 274 7,600 -1,140 Descending FlightAware
03:52PM 34.0110 -118.4590 92° East 221 254 7,300 -840 Descending FlightAware
03:52PM 34.0120 -118.4360 87° East 212 244 7,000 -960 Descending FlightAware
03:52PM 34.0130 -118.4210 85° East 208 239 6,800 -1,020 Descending FlightAware
03:53PM 34.0150 -118.3980 84° East 202 232 6,400 -1,140 Descending FlightAware
03:53PM 34.0160 -118.3730 87° East 196 226 6,000 -1,560 Descending FlightAware
03:53PM 34.0180 -118.3520 83° East 188 216 5,400 -1,980 Descending FlightAware
03:54PM 34.0190 -118.3370 85° East 188 216 4,900 -1,560 Descending FlightAware
03:54PM 34.0220 -118.3110 82° East 191 220 4,400 -1,140 Descending FlightAware
03:54PM 34.0230 -118.2970 85° East 190 219 4,200 -600 Descending FlightAware
03:55PM 34.0240 -118.2840 85° East 189 217 4,100 -180 Descending FlightAware
03:55PM 34.0260 -118.2670 82° East 190 219 4,100  Level FlightAware
03:55PM 34.0290 -118.2340 84° East 184 212 4,100  Level FlightAware
03:56PM 34.0200 -118.2150 120° Southeast 172 198 4,100  Level FlightAware
03:56PM 34.0120 -118.2120 163° South 173 199 4,100  Level FlightAware
03:56PM 34.0050 -118.2110 173° South 174 200 4,100  Level FlightAware
03:56PM 33.9880 -118.2130 186° South 175 201 4,100 -240 Level FlightAware
03:56PM 33.9830 -118.2180 220° Southwest 178 205 4,000 -780 Descending FlightAware
03:57PM 33.9790 -118.2240 231° Southwest 178 205 3,900 -1,080 Descending FlightAware
03:57PM 33.9730 -118.2380 243° Southwest 174 200 3,600 -1,620 Descending FlightAware
03:57PM 33.9680 -118.2560 251° West 177 204 3,000 -1,740 Descending FlightAware
03:57PM 33.9650 -118.2730 258° West 174 200 2,500 -1,500 Descending FlightAware
03:58PM 33.9640 -118.2920 266° West 158 182 2,000 -1,080 Descending FlightAware
03:58PM 33.9610 -118.3140 261° West 145 167 1,700 -720 Descending FlightAware
03:59PM 33.9590 -118.3300 261° West 141 162 1,400 -420 Descending FlightAware
03:59PM 33.9570 -118.3580 265° West 141 162 1,300 -660 Descending FlightAware
04:01PM 33.9511 -118.4178 265° West 143 165 100 -900 Descending Los Angeles Center